Pagrindinis puslapis
METAR-TAF:

METAR-TAF

Oro uostai :

Ely Airport (Yelland Field)

Ely, Nevada, Jungtinės Amerikos Valstijos

platuma: 39-17-42N, ilguma: 114-50-43W, Aukštis: 1907 m

Dabartinis oras

Ataskaita buvo paskelbta 23 minutes, ne 21:53 UTC
Vėjas 11 kt iš Šiaurės/Šiaurės Vakarų
Temperatūra 6°C
Drėgmė 45%
Slėgis 1025 hPa
Matomumas: 16.1 km
Giedras dangus

METAR: KELY 272153Z AUTO 33011KT 10SM CLR 06/M05 A3026 RMK AO2 SLP234 T00561050

Laikas: 14:16 (22:16 UTC)

Prognozė

Ataskaita buvo paskelbta 4 valandos ir 56 minutes, ne 17:20 UTC
Prognozė galioja nuo 27 metu 18 UTC su 28 metu 18 UTC
Vėjas 6 kt iš Šiaurės Vakarų
Matomumas: 10 km
Mažai debesys ne aukštis 6000 ft
Išsisklaidę debesys ne aukštis 20000 ft
Nuo 28 metu 1700 UTC
Vėjas 6 kt iš Pietų/Pietvakarių
Matomumas: 10 km
Su prošvaistėmis ne aukštis 5000 ft

TAF: KELY 271720Z 2718/2818 31006KT P6SM FEW060 SCT200 FM281700 20006KT P6SM BKN050

Orai ataskaitas ir orų prognozės (METAR, TAF).

turimą stotys yra geltonos ir raudonos taškus žemėlapyje.

Perkelti pele per norėdami pamatyti stoties vardą.

Tada spustelėkite, norėdami matyti oro stebėjimo ir prognozės.

Norėdami pakeisti žemėlapį: spustelėkite ant žalios mygtukų su juodo kryžiaus žemyn,; žalią mygtuką su brūkšneliu, jei norite nutolinti; arba žalių rodyklių gretimoms žemėlapius.


METAR-TAF: